Time;durP1;ratioP1;P1;durP2;ratioP2;P2;SDS_P1;SDS_P2;PMS_P1;PMS_P2;Temp;Humidity;BMP_temperature;BMP_pressure;BME280_temperature;BME280_humidity;BME280_pressure;Samples;Min_cycle;Max_cycle;Signal;HPM_P1;HPM_P2
2022/07/15 00:00:08;;;;;;;10.07;1.92;;;16.70;62.40;;;;;;2371677;56;21090;-73
2022/07/15 00:02:35;;;;;;;8.80;2.37;;;16.70;62.50;;;;;;2372683;56;21629;-74
2022/07/15 00:05:03;;;;;;;6.00;1.50;;;16.70;62.70;;;;;;2372345;56;21086;-73
2022/07/15 00:07:31;;;;;;;6.55;1.58;;;16.70;63.00;;;;;;2372254;56;21091;-74
2022/07/15 00:10:18;;;;;;;8.55;1.70;;;16.70;62.80;;;;;;2370248;56;21074;-74
2022/07/15 00:12:48;;;;;;;6.97;2.03;;;16.70;63.30;;;;;;2372519;56;21053;-74
2022/07/15 00:15:17;;;;;;;6.53;1.65;;;16.70;63.70;;;;;;2371211;56;21059;-73
2022/07/15 00:17:45;;;;;;;11.07;2.00;;;16.70;63.90;;;;;;2405345;52;21106;-74
2022/07/15 00:20:13;;;;;;;5.05;2.10;;;16.70;63.90;;;;;;2372005;56;21125;-74
2022/07/15 00:22:42;;;;;;;6.05;1.73;;;16.70;64.00;;;;;;2371368;56;21629;-74
2022/07/15 00:25:11;;;;;;;5.25;1.20;;;16.60;64.10;;;;;;2372256;56;21039;-73
2022/07/15 00:27:51;;;;;;;6.70;2.35;;;16.60;64.40;;;;;;2371188;56;21031;-74
2022/07/15 00:30:19;;;;;;;6.32;2.12;;;16.50;64.80;;;;;;2371785;56;21134;-73
2022/07/15 00:32:47;;;;;;;8.77;1.60;;;16.60;65.30;;;;;;2372817;56;21051;-74
2022/07/15 00:35:14;;;;;;;7.62;1.85;;;16.60;65.20;;;;;;2370977;56;21118;-73
2022/07/15 00:37:42;;;;;;;6.57;1.77;;;16.70;64.50;;;;;;2370915;56;21051;-74
2022/07/15 00:40:12;;;;;;;13.00;2.00;;;16.70;64.10;;;;;;2371924;56;21043;-74
2022/07/15 00:42:45;;;;;;;8.07;1.62;;;16.70;64.00;;;;;;2370687;56;21646;-74
2022/07/15 00:45:14;;;;;;;6.12;2.00;;;16.60;63.80;;;;;;2555766;52;21059;-74
2022/07/15 00:47:42;;;;;;;5.93;1.40;;;16.60;63.50;;;;;;2371566;56;21059;-74
2022/07/15 00:50:11;;;;;;;8.60;1.62;;;16.60;64.20;;;;;;2372063;56;21106;-74
2022/07/15 00:52:41;;;;;;;5.95;1.87;;;16.60;63.50;;;;;;2372085;56;21031;-74
2022/07/15 00:55:10;;;;;;;8.35;1.55;;;16.60;63.60;;;;;;2371942;56;21091;-73
2022/07/15 00:57:40;;;;;;;8.90;1.87;;;16.60;63.50;;;;;;2371361;56;21066;-74
2022/07/15 01:00:11;;;;;;;8.43;1.85;;;16.60;63.40;;;;;;2371674;56;21067;-73
2022/07/15 01:02:39;;;;;;;5.80;1.73;;;16.60;63.40;;;;;;2408221;52;21609;-74
2022/07/15 01:05:10;;;;;;;3.78;1.30;;;16.50;63.40;;;;;;2372727;56;21110;-73
2022/07/15 01:07:38;;;;;;;3.72;1.20;;;16.50;63.40;;;;;;2580056;52;21106;-74
2022/07/15 01:10:07;;;;;;;7.87;1.87;;;16.50;63.30;;;;;;2373074;56;21047;-74
2022/07/15 01:12:37;;;;;;;8.02;1.50;;;16.50;63.50;;;;;;2372908;56;21114;-74
2022/07/15 01:15:05;;;;;;;7.35;1.50;;;16.50;63.70;;;;;;2373438;56;21047;-74
2022/07/15 01:17:33;;;;;;;5.47;1.40;;;16.50;63.80;;;;;;2372448;56;21103;-74
2022/07/15 01:20:01;;;;;;;6.80;1.80;;;16.40;63.90;;;;;;2535660;52;21090;-74
2022/07/15 01:22:28;;;;;;;8.52;1.83;;;16.40;64.20;;;;;;2373193;56;21657;-74
2022/07/15 01:24:55;;;;;;;14.85;1.80;;;16.40;64.20;;;;;;2372260;56;21118;-73
2022/07/15 01:27:23;;;;;;;3.80;1.55;;;16.40;64.20;;;;;;2372537;56;21082;-74
2022/07/15 01:29:50;;;;;;;8.30;2.00;;;16.40;64.40;;;;;;2373310;56;21039;-74
2022/07/15 01:32:17;;;;;;;9.20;1.45;;;16.40;64.40;;;;;;2372937;56;21047;-73
2022/07/15 01:34:48;;;;;;;7.53;1.70;;;16.40;64.20;;;;;;2373958;56;21031;-73
2022/07/15 01:37:16;;;;;;;5.25;1.77;;;16.40;64.30;;;;;;2372330;56;21071;-74
2022/07/15 01:39:44;;;;;;;6.90;1.37;;;16.40;64.40;;;;;;2373557;56;21529;-74
2022/07/15 01:42:11;;;;;;;6.60;1.95;;;16.40;64.40;;;;;;2373725;56;21181;-73
2022/07/15 01:44:38;;;;;;;5.15;1.75;;;16.40;64.50;;;;;;2372780;56;21138;-74
2022/07/15 01:47:06;;;;;;;4.22;1.42;;;16.40;64.30;;;;;;2372147;56;21050;-74
2022/07/15 01:49:33;;;;;;;4.37;1.50;;;16.40;64.30;;;;;;2373606;56;21596;-73
2022/07/15 01:52:03;;;;;;;5.75;1.50;;;16.40;64.50;;;;;;2451496;52;21102;-74
2022/07/15 01:54:32;;;;;;;5.03;1.37;;;16.40;64.50;;;;;;2373604;56;21051;-74
2022/07/15 01:56:59;;;;;;;8.18;1.62;;;16.30;64.50;;;;;;2371864;56;21039;-74
2022/07/15 01:59:27;;;;;;;5.75;1.45;;;16.40;64.40;;;;;;2373224;56;21059;-73
2022/07/15 02:04:31;;;;;;;8.27;1.52;;;16.40;64.10;;;;;;2328245;57;22139;-74
2022/07/15 02:06:58;;;;;;;5.85;1.23;;;16.40;64.30;;;;;;2346179;57;21085;-75
2022/07/15 02:09:26;;;;;;;5.78;1.30;;;16.40;64.40;;;;;;2346815;57;21033;-75
2022/07/15 02:11:53;;;;;;;7.15;2.05;;;16.40;64.50;;;;;;2321878;54;21048;-75
2022/07/15 02:14:21;;;;;;;6.50;1.33;;;16.40;64.60;;;;;;2319341;57;21044;-75
2022/07/15 02:19:27;;;;;;;3.47;1.30;;;16.30;64.40;;;;;;2462640;53;22066;-73
2022/07/15 02:21:54;;;;;;;7.97;1.92;;;16.30;64.30;;;;;;2350309;53;21583;-73
2022/07/15 02:24:22;;;;;;;12.48;1.98;;;16.30;64.30;;;;;;2350168;53;21058;-73
2022/07/15 02:26:49;;;;;;;7.28;1.85;;;16.30;64.20;;;;;;2344906;57;21054;-73
2022/07/15 02:29:17;;;;;;;4.90;1.50;;;16.30;64.30;;;;;;2352256;53;21049;-73
2022/07/15 02:31:45;;;;;;;5.47;1.08;;;16.30;64.10;;;;;;2347152;53;21094;-73
2022/07/15 02:34:12;;;;;;;7.90;1.50;;;16.30;64.10;;;;;;2422130;53;21038;-73
2022/07/15 02:36:39;;;;;;;5.82;1.90;;;16.30;64.10;;;;;;2346372;57;21547;-73
2022/07/15 02:39:07;;;;;;;3.35;1.00;;;16.20;63.90;;;;;;2346382;57;21038;-73
2022/07/15 02:41:34;;;;;;;4.65;1.20;;;16.20;64.00;;;;;;2346445;57;21548;-73
2022/07/15 02:44:03;;;;;;;2.78;0.98;;;16.20;64.00;;;;;;2347172;57;21057;-73
2022/07/15 02:46:31;;;;;;;4.07;1.27;;;16.20;63.90;;;;;;2345983;57;21133;-73
2022/07/15 02:48:59;;;;;;;3.53;1.20;;;16.30;63.60;;;;;;2346323;57;21126;-73
2022/07/15 02:51:26;;;;;;;6.20;1.02;;;16.30;63.70;;;;;;2346395;57;21049;-73
2022/07/15 02:53:53;;;;;;;1.40;0.82;;;16.30;63.70;;;;;;2347157;57;21041;-73
2022/07/15 02:56:21;;;;;;;3.53;1.05;;;16.20;63.70;;;;;;2344963;57;21536;-73
2022/07/15 02:58:48;;;;;;;5.12;0.95;;;16.30;63.90;;;;;;2532543;53;21030;-73
2022/07/15 03:01:16;;;;;;;4.78;1.00;;;16.30;63.70;;;;;;2346045;57;21101;-73
2022/07/15 03:03:43;;;;;;;5.93;1.20;;;16.30;63.50;;;;;;2347167;57;21046;-73
2022/07/15 03:08:47;;;;;;;5.43;1.12;;;16.30;63.40;;;;;;2327013;57;22131;-74
2022/07/15 03:11:14;;;;;;;3.85;1.45;;;16.40;63.00;;;;;;2338429;57;21038;-73
2022/07/15 03:13:42;;;;;;;2.92;1.10;;;16.40;63.20;;;;;;2504809;53;21616;-73
2022/07/15 03:16:09;;;;;;;3.55;0.90;;;16.40;63.10;;;;;;2343869;57;21536;-73
2022/07/15 03:18:37;;;;;;;5.15;0.90;;;16.40;63.20;;;;;;2345721;57;21108;-73
2022/07/15 03:21:04;;;;;;;6.37;1.25;;;16.40;63.20;;;;;;2344948;57;21057;-73
2022/07/15 03:23:32;;;;;;;5.18;1.27;;;16.40;64.00;;;;;;2345955;57;21054;-73
2022/07/15 03:25:59;;;;;;;4.72;1.27;;;16.40;63.30;;;;;;2539859;53;21105;-75
2022/07/15 03:28:27;;;;;;;6.85;2.25;;;16.50;62.80;;;;;;2344735;57;21126;-76
2022/07/15 03:30:54;;;;;;;2.85;1.17;;;16.50;63.00;;;;;;2346288;57;21046;-75
2022/07/15 03:33:21;;;;;;;2.87;1.00;;;16.50;63.00;;;;;;2344516;57;21125;-75
2022/07/15 03:35:49;;;;;;;2.58;1.00;;;16.50;62.90;;;;;;2345370;57;21050;-75
2022/07/15 03:38:16;;;;;;;5.90;1.05;;;16.50;63.10;;;;;;2344250;57;21046;-76
2022/07/15 03:40:43;;;;;;;5.62;1.23;;;16.50;63.10;;;;;;2344576;57;21050;-76
2022/07/15 03:43:10;;;;;;;5.05;1.27;;;16.50;63.20;;;;;;2344891;57;21038;-76
2022/07/15 03:45:38;;;;;;;4.18;1.20;;;16.50;63.50;;;;;;2344927;57;21057;-75
2022/07/15 03:48:06;;;;;;;4.00;1.42;;;16.50;63.60;;;;;;2446633;53;21066;-75
2022/07/15 03:50:33;;;;;;;3.60;1.02;;;16.50;64.40;;;;;;2345359;57;21537;-76
2022/07/15 03:53:00;;;;;;;4.03;1.10;;;16.50;63.50;;;;;;2345502;57;21101;-75
2022/07/15 03:55:28;;;;;;;8.93;1.05;;;16.50;63.50;;;;;;2344829;57;21536;-75
2022/07/15 03:57:55;;;;;;;4.50;1.12;;;16.50;63.40;;;;;;2345419;57;21048;-75
2022/07/15 04:00:23;;;;;;;4.22;1.00;;;16.50;63.50;;;;;;2345142;57;21129;-75
2022/07/15 04:02:50;;;;;;;4.03;1.23;;;16.50;63.60;;;;;;2346262;57;21117;-75
2022/07/15 04:05:18;;;;;;;2.47;1.17;;;16.60;63.80;;;;;;2343903;57;21065;-75
2022/07/15 04:07:45;;;;;;;2.28;0.90;;;16.60;63.60;;;;;;2346065;57;21045;-76
2022/07/15 04:10:12;;;;;;;5.75;1.20;;;16.60;63.70;;;;;;2345212;57;21097;-75
2022/07/15 04:12:41;;;;;;;5.05;0.70;;;16.60;63.70;;;;;;2345746;57;21128;-76
2022/07/15 04:15:10;;;;;;;4.10;1.23;;;16.60;64.00;;;;;;2344656;57;21053;-75
2022/07/15 04:17:37;;;;;;;5.68;1.05;;;16.60;64.60;;;;;;2344976;57;21034;-76
2022/07/15 04:20:07;;;;;;;5.80;1.45;;;16.60;64.80;;;;;;2351662;53;21079;-76
2022/07/15 04:22:40;;;;;;;4.43;1.20;;;16.60;64.50;;;;;;2344263;57;21536;-73
2022/07/15 04:25:11;;;;;;;1.42;0.93;;;16.60;64.60;;;;;;2344302;57;21607;-73
2022/07/15 04:27:38;;;;;;;2.80;1.25;;;16.60;64.50;;;;;;2344189;57;22167;-73
2022/07/15 04:30:08;;;;;;;3.25;1.00;;;16.60;64.80;;;;;;2344212;57;21046;-73
2022/07/15 04:32:35;;;;;;;2.70;0.90;;;16.60;64.70;;;;;;2344653;57;21050;-73
2022/07/15 04:35:04;;;;;;;4.30;1.00;;;16.60;64.50;;;;;;2343773;57;21662;-73
2022/07/15 04:37:31;;;;;;;4.62;1.10;;;16.60;64.20;;;;;;2343815;57;21666;-73
2022/07/15 04:39:59;;;;;;;4.65;1.35;;;16.60;64.10;;;;;;2435294;53;21104;-76
2022/07/15 04:42:27;;;;;;;3.92;1.08;;;16.70;63.70;;;;;;2301599;58;21049;-76
2022/07/15 04:44:54;;;;;;;4.82;1.02;;;16.70;63.80;;;;;;2300414;58;21119;-76
2022/07/15 04:47:22;;;;;;;2.45;1.25;;;16.70;63.70;;;;;;2300432;58;21156;-76
2022/07/15 04:52:34;;;;;;;5.30;1.08;;;16.80;63.30;;;;;;2301068;58;21044;-76
2022/07/15 04:55:02;;;;;;;6.07;1.27;;;16.90;63.50;;;;;;2300889;58;21222;-76
2022/07/15 04:57:29;;;;;;;4.47;1.27;;;16.90;63.30;;;;;;2300501;58;21080;-76
2022/07/15 04:59:57;;;;;;;2.35;0.80;;;16.90;63.30;;;;;;2299147;58;21073;-76
2022/07/15 05:02:24;;;;;;;8.25;1.35;;;16.90;63.10;;;;;;2300651;58;21143;-76
2022/07/15 05:04:51;;;;;;;6.57;1.52;;;17.00;64.10;;;;;;2299706;58;21230;-76
2022/07/15 05:07:19;;;;;;;3.87;1.10;;;17.00;63.00;;;;;;2300485;58;21080;-75
2022/07/15 05:09:46;;;;;;;3.10;0.98;;;17.00;62.40;;;;;;2300563;58;21053;-76
2022/07/15 05:12:13;;;;;;;6.53;1.37;;;17.00;62.50;;;;;;2300793;58;21052;-76
2022/07/15 05:14:41;;;;;;;3.83;1.05;;;17.00;62.40;;;;;;2537689;54;21048;-76
2022/07/15 05:17:09;;;;;;;11.30;1.60;;;17.00;62.40;;;;;;2537317;54;21049;-76
2022/07/15 05:19:37;;;;;;;6.35;1.00;;;17.00;62.20;;;;;;2299939;58;21044;-76
2022/07/15 05:22:04;;;;;;;5.55;1.27;;;17.00;61.50;;;;;;2300960;58;21063;-76
2022/07/15 05:24:31;;;;;;;6.60;1.10;;;17.10;61.70;;;;;;2300225;58;21049;-76
2022/07/15 05:26:59;;;;;;;5.03;1.40;;;17.10;61.50;;;;;;2300706;58;21673;-76
2022/07/15 05:29:26;;;;;;;3.60;1.17;;;17.10;61.50;;;;;;2300431;58;21136;-76
2022/07/15 05:31:54;;;;;;;5.05;1.83;;;17.20;61.30;;;;;;2300624;58;21547;-76
2022/07/15 05:34:21;;;;;;;4.68;1.17;;;17.20;61.40;;;;;;2300869;58;21123;-76
2022/07/15 05:36:48;;;;;;;6.80;1.17;;;17.30;61.40;;;;;;2299714;58;21108;-76
2022/07/15 05:39:16;;;;;;;4.25;1.00;;;17.30;60.40;;;;;;2300703;58;21064;-76
2022/07/15 05:41:43;;;;;;;4.12;1.15;;;17.30;60.20;;;;;;2300631;58;21076;-76
2022/07/15 05:44:10;;;;;;;2.45;1.15;;;17.40;60.20;;;;;;2300783;58;21554;-76
2022/07/15 05:46:38;;;;;;;3.15;1.27;;;17.40;59.80;;;;;;2300305;58;21072;-75
2022/07/15 05:49:05;;;;;;;3.22;1.27;;;17.40;59.40;;;;;;2300859;58;21120;-76
2022/07/15 05:51:33;;;;;;;3.10;1.42;;;17.40;59.10;;;;;;2299912;58;21374;-75
2022/07/15 05:54:01;;;;;;;4.62;1.25;;;17.40;60.00;;;;;;2300944;58;21151;-75
2022/07/15 05:56:28;;;;;;;5.18;1.23;;;17.50;59.40;;;;;;2299652;58;21053;-76
2022/07/15 05:58:56;;;;;;;4.80;1.15;;;17.50;59.20;;;;;;2300398;58;21052;-76
2022/07/15 06:01:23;;;;;;;4.20;1.20;;;17.50;59.10;;;;;;2301064;58;21135;-75
2022/07/15 06:03:51;;;;;;;4.40;1.33;;;17.60;58.80;;;;;;2300907;58;21064;-76
2022/07/15 06:06:18;;;;;;;5.15;1.17;;;17.70;58.70;;;;;;2300457;58;21048;-76
2022/07/15 06:08:45;;;;;;;4.68;1.00;;;17.60;58.50;;;;;;2300808;58;21146;-75
2022/07/15 06:11:13;;;;;;;3.60;1.05;;;17.60;58.50;;;;;;2300742;58;21088;-75
2022/07/15 06:13:40;;;;;;;7.80;1.40;;;17.70;58.80;;;;;;2301470;58;21060;-75
2022/07/15 06:16:08;;;;;;;3.87;1.33;;;17.70;58.80;;;;;;2298433;58;21136;-75
2022/07/15 06:18:37;;;;;;;3.97;1.20;;;17.80;58.50;;;;;;2300823;58;21579;-75
2022/07/15 06:21:04;;;;;;;2.10;0.93;;;17.80;58.80;;;;;;2299750;58;21048;-76
2022/07/15 06:23:31;;;;;;;4.45;1.25;;;17.80;59.00;;;;;;2293512;58;21164;-75
2022/07/15 06:25:59;;;;;;;4.03;1.02;;;17.90;59.10;;;;;;2298637;58;21065;-76
2022/07/15 06:28:26;;;;;;;3.70;1.15;;;17.90;58.80;;;;;;2301167;58;21144;-76
2022/07/15 06:30:53;;;;;;;3.53;1.10;;;18.00;58.10;;;;;;2300620;58;21060;-76
2022/07/15 06:33:24;;;;;;;4.72;1.10;;;18.00;58.10;;;;;;2300552;58;21060;-76
2022/07/15 06:35:51;;;;;;;5.78;1.05;;;18.00;58.20;;;;;;2300234;58;21068;-76
2022/07/15 06:38:18;;;;;;;6.07;1.27;;;18.00;58.10;;;;;;2301183;58;21037;-76
2022/07/15 06:40:46;;;;;;;3.72;0.98;;;17.90;57.90;;;;;;2300691;58;21115;-76
2022/07/15 06:43:14;;;;;;;4.75;0.98;;;17.80;58.30;;;;;;2301034;58;21056;-76
2022/07/15 06:45:41;;;;;;;2.83;1.20;;;17.80;58.70;;;;;;2537117;54;21414;-76
2022/07/15 06:48:09;;;;;;;4.32;1.00;;;17.70;58.90;;;;;;2300923;58;21734;-76
2022/07/15 06:50:36;;;;;;;3.50;1.17;;;17.60;59.10;;;;;;2299863;58;21159;-77
2022/07/15 06:53:04;;;;;;;3.70;0.80;;;17.50;59.00;;;;;;2300839;58;21065;-76
2022/07/15 06:55:32;;;;;;;3.70;1.02;;;17.50;59.20;;;;;;2300015;58;21056;-75
2022/07/15 06:57:59;;;;;;;2.10;0.90;;;17.50;59.10;;;;;;2300189;58;21048;-76
2022/07/15 07:00:27;;;;;;;6.82;1.15;;;17.60;58.80;;;;;;2299569;58;21056;-76
2022/07/15 07:02:54;;;;;;;2.90;0.77;;;17.60;58.20;;;;;;2537594;54;21570;-76
2022/07/15 07:05:22;;;;;;;2.30;1.05;;;17.70;57.60;;;;;;2299503;58;21602;-75
2022/07/15 07:07:49;;;;;;;4.68;1.10;;;17.70;57.40;;;;;;2300420;58;21152;-75
2022/07/15 07:10:17;;;;;;;4.50;1.02;;;17.80;56.90;;;;;;2300582;58;21044;-75
2022/07/15 07:12:44;;;;;;;3.10;0.80;;;17.80;57.00;;;;;;2301004;58;21040;-75
2022/07/15 07:15:12;;;;;;;4.97;1.10;;;17.90;57.10;;;;;;2300259;58;21065;-76
2022/07/15 07:17:39;;;;;;;5.80;1.15;;;17.90;56.40;;;;;;2298928;58;21342;-76
2022/07/15 07:20:08;;;;;;;3.42;1.00;;;17.90;56.30;;;;;;2299715;58;21124;-77
2022/07/15 07:22:35;;;;;;;2.28;0.82;;;17.90;56.20;;;;;;2298653;58;21131;-76
2022/07/15 07:25:04;;;;;;;2.95;0.73;;;18.00;56.10;;;;;;2299644;58;21605;-76
2022/07/15 07:27:32;;;;;;;5.87;1.20;;;18.00;56.00;;;;;;2298354;58;21127;-75
2022/07/15 07:30:01;;;;;;;2.55;0.90;;;18.10;55.80;;;;;;2300185;58;21057;-76
2022/07/15 07:32:28;;;;;;;3.33;1.10;;;18.20;55.50;;;;;;2300307;58;21056;-78
2022/07/15 07:34:56;;;;;;;6.75;1.10;;;18.20;55.40;;;;;;2300544;58;21068;-76
2022/07/15 07:37:24;;;;;;;3.37;0.82;;;18.20;55.50;;;;;;2300444;58;21048;-76
2022/07/15 07:39:51;;;;;;;6.15;1.20;;;18.30;55.40;;;;;;2300026;58;21059;-77
2022/07/15 07:42:19;;;;;;;4.78;0.90;;;18.30;55.20;;;;;;2300142;58;21103;-77
2022/07/15 07:44:46;;;;;;;5.90;1.12;;;18.40;55.40;;;;;;2300209;58;21049;-77
2022/07/15 07:47:13;;;;;;;3.67;1.23;;;18.50;55.50;;;;;;2299000;58;21139;-77
2022/07/15 07:49:41;;;;;;;2.70;0.85;;;18.50;55.40;;;;;;2299194;58;21112;-77
2022/07/15 07:52:09;;;;;;;2.62;0.80;;;18.60;54.90;;;;;;2300588;58;21096;-77
2022/07/15 07:54:36;;;;;;;3.85;0.82;;;18.60;55.00;;;;;;2300266;58;21148;-76
2022/07/15 07:57:04;;;;;;;3.60;0.93;;;18.70;54.80;;;;;;2299758;58;21659;-77
2022/07/15 07:59:31;;;;;;;5.43;1.00;;;18.80;54.30;;;;;;2300779;58;21045;-76
2022/07/15 08:01:59;;;;;;;3.45;0.80;;;18.80;54.80;;;;;;2298193;58;21056;-77
2022/07/15 08:04:26;;;;;;;2.85;0.65;;;18.90;54.30;;;;;;2299405;58;21567;-77
2022/07/15 08:06:54;;;;;;;3.30;0.90;;;19.00;53.40;;;;;;2534927;54;21104;-77
2022/07/15 08:09:21;;;;;;;4.50;1.27;;;19.00;52.80;;;;;;2298462;58;21622;-78
2022/07/15 08:11:48;;;;;;;9.15;1.15;;;19.00;53.30;;;;;;2298938;58;21055;-78
2022/07/15 08:14:18;;;;;;;2.65;1.10;;;19.00;52.70;;;;;;2537208;54;21131;-77
2022/07/15 08:16:46;;;;;;;2.97;0.65;;;19.00;53.20;;;;;;2297382;58;21067;-77
2022/07/15 08:19:16;;;;;;;1.85;0.70;;;19.00;52.60;;;;;;2299704;58;21124;-77
2022/07/15 08:21:43;;;;;;;4.75;0.98;;;18.90;52.30;;;;;;2298065;58;21143;-78
2022/07/15 08:24:12;;;;;;;2.92;0.77;;;18.90;53.70;;;;;;2298955;58;21665;-77
2022/07/15 08:26:39;;;;;;;1.70;0.70;;;18.80;54.20;;;;;;2297303;58;21106;-78
2022/07/15 08:29:07;;;;;;;4.07;1.40;;;18.80;54.50;;;;;;2535822;54;21108;-77
2022/07/15 08:31:35;;;;;;;5.12;0.80;;;18.70;54.70;;;;;;2296691;58;21238;-78
2022/07/15 08:34:02;;;;;;;2.42;1.00;;;18.70;54.30;;;;;;2298143;58;21167;-76
2022/07/15 08:36:30;;;;;;;3.85;0.73;;;18.80;54.50;;;;;;2297286;58;21689;-76
2022/07/15 08:38:57;;;;;;;7.47;2.10;;;18.80;54.70;;;;;;2298729;58;21077;-77
2022/07/15 08:41:25;;;;;;;5.90;0.90;;;18.70;54.40;;;;;;2298519;58;21137;-77
2022/07/15 08:43:52;;;;;;;4.28;0.60;;;18.70;54.90;;;;;;2536507;54;21057;-77
2022/07/15 08:49:06;;;;;;;3.58;0.80;;;18.70;54.70;;;;;;2351618;57;22086;-76
2022/07/15 08:51:38;;;;;;;3.00;0.80;;;18.70;54.70;;;;;;2622760;52;21392;-76
2022/07/15 08:54:06;;;;;;;2.65;0.93;;;18.80;54.80;;;;;;2371833;56;21696;-77
2022/07/15 08:56:34;;;;;;;4.05;0.75;;;18.90;54.80;;;;;;2372690;56;21062;-77
2022/07/15 09:02:24;;;;;;;7.22;1.00;;;18.90;54.30;;;;;;2562524;54;21125;-76
2022/07/15 09:05:21;;;;;;;3.33;0.90;;;19.00;54.90;;;;;;2320083;58;21115;-76
2022/07/15 09:07:55;;;;;;;2.85;0.80;;;19.00;54.90;;;;;;2320719;58;21069;-76
2022/07/15 09:10:24;;;;;;;5.68;0.93;;;18.90;54.90;;;;;;2550280;54;21115;-76
2022/07/15 09:15:33;;;;;;;7.97;0.95;;;18.80;55.20;;;;;;2352576;57;22073;-77
2022/07/15 09:18:12;;;;;;;2.22;0.82;;;18.80;56.00;;;;;;2344349;57;21579;-76
2022/07/15 09:23:21;;;;;;;4.07;0.73;;;18.90;56.50;;;;;;2353794;57;22145;-77
2022/07/15 09:25:50;;;;;;;2.12;0.65;;;18.90;56.60;;;;;;2344408;57;21749;-77
2022/07/15 09:28:17;;;;;;;3.35;0.73;;;18.90;56.70;;;;;;2343168;57;21053;-76
2022/07/15 09:33:36;;;;;;;1.70;0.50;;;18.90;56.10;;;;;;2371631;56;21578;-76
2022/07/15 09:36:12;;;;;;;3.22;0.70;;;19.00;56.20;;;;;;2368182;56;21129;-76
2022/07/15 09:38:44;;;;;;;2.87;0.50;;;19.00;55.60;;;;;;2373580;56;21027;-76
2022/07/15 09:41:19;;;;;;;3.35;0.70;;;19.10;54.40;;;;;;2371897;56;21099;-77
2022/07/15 09:43:52;;;;;;;0.93;0.43;;;19.10;53.60;;;;;;2370410;56;21071;-77
2022/07/15 09:46:21;;;;;;;2.40;0.65;;;19.20;54.00;;;;;;2369843;56;21126;-77
2022/07/15 09:48:50;;;;;;;0.65;0.43;;;19.30;52.70;;;;;;2370942;56;21613;-78
2022/07/15 09:51:18;;;;;;;1.27;0.60;;;19.40;51.60;;;;;;2372852;56;21074;-78
2022/07/15 09:53:46;;;;;;;2.85;0.43;;;19.30;50.30;;;;;;2371934;56;21122;-78
2022/07/15 09:56:15;;;;;;;3.10;0.60;;;19.30;51.30;;;;;;2371802;56;22071;-77
2022/07/15 09:58:44;;;;;;;1.90;0.68;;;19.30;50.40;;;;;;2372732;56;21110;-76
2022/07/15 10:04:33;;;;;;;0.73;0.40;;;19.40;50.40;;;;;;2582936;52;20940;-77
2022/07/15 10:07:02;;;;;;;4.60;0.85;;;19.50;49.90;;;;;;2371308;56;21631;-75
2022/07/15 10:09:31;;;;;;;2.03;0.50;;;19.70;50.40;;;;;;2372885;56;21102;-77
2022/07/15 10:12:04;;;;;;;1.33;0.68;;;19.70;50.10;;;;;;2372609;56;21075;-76
2022/07/15 10:14:46;;;;;;;2.20;0.50;;;19.80;50.00;;;;;;2373469;56;21047;-76
2022/07/15 10:17:31;;;;;;;2.28;0.70;;;19.80;50.60;;;;;;2372211;56;21094;-77
2022/07/15 10:20:23;;;;;;;3.15;0.93;;;19.90;50.40;;;;;;2373267;56;21035;-77
2022/07/15 10:23:02;;;;;;;3.67;0.70;;;20.00;50.20;;;;;;2372673;56;21058;-78
2022/07/15 10:25:55;;;;;;;5.60;1.37;;;20.00;51.30;;;;;;2371958;56;21371;-79
2022/07/15 10:28:38;;;;;;;2.62;0.65;;;20.00;51.20;;;;;;2375178;56;21110;-79
2022/07/15 10:31:17;;;;;;;3.08;0.90;;;20.00;51.30;;;;;;2373876;56;21067;-78
2022/07/15 10:34:17;;;;;;;2.67;0.65;;;20.00;51.60;;;;;;2372011;56;21178;-78
2022/07/15 10:39:55;;;;;;;3.42;0.62;;;19.90;52.80;;;;;;2295091;52;22508;-74
2022/07/15 10:42:23;;;;;;;5.85;1.35;;;19.90;52.80;;;;;;2330177;57;21075;-76
2022/07/15 10:45:09;;;;;;;3.22;1.02;;;19.90;53.00;;;;;;2330033;57;21626;-76
2022/07/15 10:47:37;;;;;;;2.50;0.75;;;19.90;53.80;;;;;;2332753;53;21142;-75
2022/07/15 10:50:35;;;;;;;2.40;0.70;;;19.90;53.40;;;;;;2323189;54;21133;-75
2022/07/15 10:53:18;;;;;;;2.60;0.80;;;19.80;52.90;;;;;;2308044;54;21081;-77
2022/07/15 10:55:45;;;;;;;4.40;0.60;;;19.80;53.10;;;;;;2304159;54;21121;-78
2022/07/15 10:58:16;;;;;;;3.37;0.50;;;19.80;52.80;;;;;;2305150;54;21081;-78
2022/07/15 11:00:46;;;;;;;2.05;0.50;;;19.80;52.70;;;;;;2303648;58;21176;-78
2022/07/15 11:03:16;;;;;;;1.80;0.50;;;19.80;52.60;;;;;;2303316;55;21161;-77
2022/07/15 11:06:01;;;;;;;1.42;0.57;;;19.90;52.50;;;;;;2326766;54;21077;-78
2022/07/15 11:11:48;;;;;;;2.58;0.80;;;20.00;52.30;;;;;;2328728;57;22107;-76
2022/07/15 11:14:40;;;;;;;3.62;0.60;;;20.10;52.40;;;;;;2349660;53;21060;-75
2022/07/15 11:17:08;;;;;;;3.95;0.65;;;20.20;52.10;;;;;;2342478;57;21837;-76
2022/07/15 11:19:36;;;;;;;2.50;0.62;;;20.30;52.50;;;;;;2371119;53;21113;-75
2022/07/15 11:22:03;;;;;;;1.15;0.68;;;20.40;51.60;;;;;;2343475;57;21069;-74
2022/07/15 11:24:31;;;;;;;2.20;0.70;;;20.40;51.40;;;;;;2350540;53;21058;-75
2022/07/15 11:27:01;;;;;;;1.02;0.40;;;20.50;51.20;;;;;;2344950;53;21610;-75
2022/07/15 11:29:45;;;;;;;4.15;1.02;;;20.60;49.60;;;;;;2427385;53;21121;-74
2022/07/15 11:32:15;;;;;;;5.53;0.80;;;20.60;49.80;;;;;;2369704;53;21049;-75
2022/07/15 11:34:45;;;;;;;1.65;0.55;;;20.70;50.10;;;;;;2345979;53;21450;-75
2022/07/15 11:37:18;;;;;;;1.27;0.47;;;20.70;49.60;;;;;;2342703;54;21057;-74
2022/07/15 11:39:46;;;;;;;;;;;20.70;50.40;;;;;;2383199;53;21073;-75
2022/07/15 11:45:13;;;;;;;1.62;0.50;;;20.80;50.10;;;;;;2322045;55;21398;-75
2022/07/15 11:47:52;;;;;;;2.90;0.88;;;21.00;50.30;;;;;;2372344;53;21320;-75
2022/07/15 11:50:20;;;;;;;2.40;0.88;;;21.20;50.20;;;;;;2341788;57;21131;-75
2022/07/15 11:52:50;;;;;;;3.60;0.65;;;21.40;50.00;;;;;;2353236;53;21129;-76
2022/07/15 11:55:18;;;;;;;1.27;0.50;;;21.60;49.20;;;;;;2342961;54;21537;-74
2022/07/15 11:57:47;;;;;;;2.67;0.60;;;21.70;48.50;;;;;;2343143;57;21375;-75
2022/07/15 12:00:15;;;;;;;3.85;0.90;;;21.80;47.00;;;;;;2352163;53;21053;-76
2022/07/15 12:02:43;;;;;;;3.12;0.75;;;21.80;47.20;;;;;;2342593;55;21145;-75
2022/07/15 12:05:11;;;;;;;2.60;1.00;;;21.80;46.90;;;;;;2373345;53;21058;-75
2022/07/15 12:07:47;;;;;;;2.50;0.80;;;21.80;46.70;;;;;;2343174;55;21101;-75
2022/07/15 12:10:18;;;;;;;5.12;0.70;;;21.90;47.40;;;;;;2343427;55;21935;-75
2022/07/15 12:12:56;;;;;;;2.70;0.82;;;22.00;47.80;;;;;;2353155;53;21129;-75
2022/07/15 12:15:24;;;;;;;3.80;0.70;;;22.00;46.40;;;;;;2361742;53;21700;-74
2022/07/15 12:17:52;;;;;;;3.17;0.80;;;22.10;47.00;;;;;;2347785;53;21050;-74
2022/07/15 12:20:19;;;;;;;3.65;0.50;;;22.30;47.10;;;;;;2374150;53;21463;-75
2022/07/15 12:23:06;;;;;;;3.42;0.75;;;22.50;46.70;;;;;;2346686;53;21140;-75
2022/07/15 12:25:34;;;;;;;2.20;0.60;;;22.50;45.50;;;;;;2341967;55;21645;-75
2022/07/15 12:30:39;;;;;;;1.77;0.75;;;22.40;45.20;;;;;;2336220;57;22134;-76
2022/07/15 12:33:18;;;;;;;2.65;0.88;;;22.40;45.80;;;;;;2474262;52;21827;-76
2022/07/15 12:35:46;;;;;;;2.78;0.50;;;22.50;46.60;;;;;;2423968;52;21057;-76
2022/07/15 12:38:27;;;;;;;1.40;0.57;;;22.60;45.90;;;;;;2343135;55;21308;-75
2022/07/15 12:41:04;;;;;;;3.37;0.65;;;22.60;46.00;;;;;;2385551;53;21364;-76
2022/07/15 12:43:49;;;;;;;3.12;0.60;;;22.60;45.00;;;;;;2405550;53;21053;-75
2022/07/15 12:46:17;;;;;;;4.60;0.80;;;22.50;45.10;;;;;;2343210;55;21120;-75
2022/07/15 12:48:46;;;;;;;4.50;1.37;;;22.40;45.50;;;;;;2354334;53;21062;-76
2022/07/15 12:51:14;;;;;;;1.15;0.50;;;22.30;46.20;;;;;;2341949;57;21128;-76
2022/07/15 12:53:41;;;;;;;2.22;0.65;;;22.30;46.30;;;;;;2343007;57;21698;-75
2022/07/15 12:56:10;;;;;;;3.42;0.70;;;22.20;46.20;;;;;;2341508;57;21243;-75
2022/07/15 12:58:38;;;;;;;2.53;0.45;;;22.10;46.40;;;;;;2345240;53;21806;-75
2022/07/15 13:01:08;;;;;;;2.15;0.68;;;22.00;46.90;;;;;;2346972;53;21057;-75
2022/07/15 13:03:36;;;;;;;1.77;0.68;;;21.90;46.30;;;;;;2344048;53;21136;-75
2022/07/15 13:06:04;;;;;;;4.00;0.77;;;21.90;45.90;;;;;;2381909;53;21038;-76
2022/07/15 13:08:34;;;;;;;1.55;0.40;;;21.80;46.00;;;;;;2353017;53;21091;-75
2022/07/15 13:11:03;;;;;;;2.45;0.60;;;21.90;46.40;;;;;;2344472;53;21132;-75
2022/07/15 13:13:34;;;;;;;1.85;0.70;;;22.10;46.90;;;;;;2344203;53;21124;-75
2022/07/15 13:16:03;;;;;;;2.45;0.45;;;22.30;46.70;;;;;;2342860;55;21589;-77
2022/07/15 13:18:32;;;;;;;3.40;0.50;;;22.50;46.10;;;;;;2383133;53;21069;-75
2022/07/15 13:21:00;;;;;;;1.85;0.60;;;22.60;45.40;;;;;;2410233;53;21751;-76
2022/07/15 13:23:27;;;;;;;3.30;0.60;;;22.80;45.60;;;;;;2342149;57;21411;-75
2022/07/15 13:28:31;;;;;;;3.40;0.73;;;22.80;45.50;;;;;;2351583;57;22385;-78
2022/07/15 13:30:59;;;;;;;4.60;0.88;;;22.80;45.20;;;;;;2369949;53;21062;-78
2022/07/15 13:33:27;;;;;;;1.75;0.60;;;22.70;44.80;;;;;;2371593;56;21070;-78
2022/07/15 13:35:57;;;;;;;1.25;0.60;;;22.70;45.00;;;;;;2375073;52;21079;-78
2022/07/15 13:38:24;;;;;;;3.92;0.85;;;22.70;45.10;;;;;;2409184;52;21111;-77
2022/07/15 13:40:52;;;;;;;1.85;0.60;;;22.70;45.50;;;;;;2403890;52;21128;-78